Time;durP1;ratioP1;P1;durP2;ratioP2;P2;SDS_P1;SDS_P2;PMS_P1;PMS_P2;Temp;Humidity;BMP_temperature;BMP_pressure;BME280_temperature;BME280_humidity;BME280_pressure;Samples;Min_cycle;Max_cycle;Signal;HPM_P1;HPM_P2
2023/04/14 00:00:48;;;;;;;3.78;2.83;;;;;;;5.67;97.55;97850.50;4184232;28;20255;-51
2023/04/14 00:02:49;;;;;;;4.95;2.90;;;;;;;5.51;97.66;97851.22;4170398;28;20201;-51
2023/04/14 00:04:52;;;;;;;3.90;3.55;;;;;;;5.46;98.01;97851.06;4175501;28;20216;-51
2023/04/14 00:06:57;;;;;;;7.90;2.90;;;;;;;5.51;98.12;97849.34;4160768;28;20209;-52
2023/04/14 00:08:59;;;;;;;3.28;2.47;;;;;;;5.57;97.57;97853.00;4176969;28;20199;-51
2023/04/14 00:11:01;;;;;;;4.95;3.15;;;;;;;5.52;97.54;97850.16;4172799;28;20439;-51
2023/04/14 00:13:02;;;;;;;3.83;2.78;;;;;;;5.52;97.67;97863.72;4169788;28;20295;-51
2023/04/14 00:15:05;;;;;;;4.32;2.42;;;;;;;5.51;97.64;97867.50;4166421;28;20627;-52
2023/04/14 00:17:06;;;;;;;8.50;3.03;;;;;;;5.46;97.63;97868.19;4170106;28;20255;-52
2023/04/14 00:19:08;;;;;;;3.67;2.60;;;;;;;5.53;97.65;97868.06;4176987;28;20222;-52
2023/04/14 00:21:10;;;;;;;7.63;2.95;;;;;;;5.30;97.56;97874.28;4171157;28;20215;-51
2023/04/14 00:23:12;;;;;;;4.07;2.40;;;;;;;5.20;98.65;97878.63;4167323;28;20243;-50
2023/04/14 00:25:14;;;;;;;3.10;2.10;;;;;;;5.13;98.80;97875.19;4171381;28;20235;-51
2023/04/14 00:27:16;;;;;;;6.15;2.72;;;;;;;5.15;98.83;97873.91;4169386;28;20732;-52
2023/04/14 00:29:17;;;;;;;4.85;2.63;;;;;;;5.11;99.10;97880.03;4167833;28;21019;-51
2023/04/14 00:31:19;;;;;;;5.38;2.17;;;;;;;5.14;98.95;97874.13;4167498;28;20718;-51
2023/04/14 00:33:21;;;;;;;4.18;2.47;;;;;;;5.18;99.17;97875.31;4202483;28;20203;-53
2023/04/14 00:35:23;;;;;;;4.18;2.25;;;;;;;5.20;98.69;97868.59;4192535;28;20569;-51
2023/04/14 00:37:29;;;;;;;8.60;2.22;;;;;;;5.17;98.81;97876.38;4160853;28;20315;-51
2023/04/14 00:39:30;;;;;;;5.25;2.67;;;;;;;5.01;98.79;97868.09;4176504;28;20232;-51
2023/04/14 00:41:33;;;;;;;5.68;2.67;;;;;;;4.91;98.69;97874.06;4173005;28;20236;-51
2023/04/14 00:43:35;;;;;;;8.43;2.60;;;;;;;4.86;99.34;97871.19;4169876;28;20229;-51
2023/04/14 00:45:42;;;;;;;4.78;2.60;;;;;;;4.89;99.64;97869.91;4200406;28;20210;-51
2023/04/14 00:47:49;;;;;;;5.68;2.90;;;;;;;4.97;99.69;97858.75;4171062;28;20256;-52
2023/04/14 00:49:51;;;;;;;6.68;2.90;;;;;;;5.02;99.10;97862.44;4170294;28;20295;-51
2023/04/14 00:51:53;;;;;;;6.82;3.33;;;;;;;4.97;99.43;97857.69;4173470;28;20291;-51
2023/04/14 00:53:55;;;;;;;6.30;4.28;;;;;;;5.02;99.19;97865.16;4168270;28;20262;-52
2023/04/14 00:55:58;;;;;;;7.85;4.50;;;;;;;4.83;99.85;97868.13;4167955;28;20219;-54
2023/04/14 00:58:00;;;;;;;6.25;3.40;;;;;;;4.80;100.00;97877.53;4169444;28;20235;-52
2023/04/14 01:00:05;;;;;;;7.90;4.43;;;;;;;4.69;100.00;97881.03;4198912;28;20215;-51
2023/04/14 01:02:07;;;;;;;5.60;3.00;;;;;;;4.71;100.00;97878.91;4169015;28;20239;-52
2023/04/14 01:04:10;;;;;;;9.57;3.47;;;;;;;4.70;100.00;97877.28;4168061;28;20315;-52
2023/04/14 01:06:12;;;;;;;6.65;3.67;;;;;;;4.67;100.00;97863.34;4166075;28;20208;-52
2023/04/14 01:08:13;;;;;;;5.15;2.53;;;;;;;4.70;100.00;97877.28;4183020;28;20698;-52
2023/04/14 01:10:16;;;;;;;5.30;2.53;;;;;;;4.71;100.00;97873.50;4201111;28;20700;-52
2023/04/14 01:12:20;;;;;;;5.43;2.58;;;;;;;4.69;100.00;97875.63;4153723;28;20255;-51
2023/04/14 01:15:11;;;;;;;6.05;3.13;;;;;;;4.76;99.62;97870.94;4168225;28;20287;-51
2023/04/14 01:17:24;;;;;;;2.50;2.25;;;;;;;4.62;99.43;97874.03;4146592;28;20224;-52
2023/04/14 01:19:57;;;;;;;2.63;1.92;;;;;;;4.49;99.96;97869.63;4167874;28;20204;-51
2023/04/14 01:22:05;;;;;;;10.82;2.88;;;;;;;4.48;100.00;97873.38;4167958;28;20662;-54
2023/04/14 01:24:15;;;;;;;9.82;2.13;;;;;;;4.38;100.00;97878.50;4177840;28;20779;-51
2023/04/14 01:26:30;;;;;;;4.95;2.15;;;;;;;4.35;100.00;97878.94;4184103;28;20243;-51
2023/04/14 01:28:43;;;;;;;5.35;2.83;;;;;;;4.33;100.00;97875.66;4203947;28;20269;-52
2023/04/14 01:30:51;;;;;;;8.77;3.00;;;;;;;4.39;100.00;97880.16;4173931;28;20235;-51
2023/04/14 01:32:55;;;;;;;6.85;3.10;;;;;;;4.32;100.00;97884.81;4169541;28;20342;-53
2023/04/14 01:35:04;;;;;;;4.93;2.22;;;;;;;4.36;100.00;97885.19;4170908;28;20648;-52
2023/04/14 01:37:08;;;;;;;4.45;2.88;;;;;;;4.32;100.00;97886.69;4168774;28;20227;-53
2023/04/14 01:39:13;;;;;;;12.73;3.38;;;;;;;4.21;100.00;97892.88;4190171;28;20572;-52
2023/04/14 01:41:16;;;;;;;3.38;2.13;;;;;;;4.16;100.00;97890.84;4170861;28;20220;-51
2023/04/14 01:43:24;;;;;;;5.28;3.15;;;;;;;4.12;100.00;97895.03;4178867;28;20363;-51
2023/04/14 01:45:34;;;;;;;4.80;2.08;;;;;;;4.12;100.00;97895.03;4168872;28;20252;-51
2023/04/14 01:47:36;;;;;;;2.55;2.30;;;;;;;4.01;100.00;97898.47;4176055;28;20224;-52
2023/04/14 01:49:39;;;;;;;5.85;2.45;;;;;;;3.99;100.00;97895.19;4172955;28;20753;-51
2023/04/14 01:51:41;;;;;;;4.03;2.33;;;;;;;3.89;100.00;97900.31;4171485;28;20637;-52
2023/04/14 01:53:44;;;;;;;4.30;2.53;;;;;;;3.88;100.00;97895.91;4173888;28;20236;-52
2023/04/14 01:55:49;;;;;;;4.32;1.88;;;;;;;3.93;100.00;97893.38;4168133;28;20236;-52
2023/04/14 01:57:52;;;;;;;3.28;2.58;;;;;;;3.96;100.00;97890.22;4156227;28;20229;-51
2023/04/14 01:59:56;;;;;;;2.50;2.28;;;;;;;3.98;100.00;97893.53;4159023;28;20675;-52
2023/04/14 02:02:00;;;;;;;4.00;2.95;;;;;;;4.06;100.00;97893.25;4178634;28;20246;-51
2023/04/14 02:04:02;;;;;;;3.30;3.08;;;;;;;4.04;100.00;97903.47;4171413;28;20259;-52
2023/04/14 02:06:06;;;;;;;3.80;3.22;;;;;;;3.54;100.00;97901.03;4171340;28;20205;-53
2023/04/14 02:08:10;;;;;;;6.03;2.45;;;;;;;3.22;100.00;97902.13;4172836;28;20712;-51
2023/04/14 02:10:14;;;;;;;5.35;2.55;;;;;;;3.30;100.00;97901.84;4171527;28;20816;-51
2023/04/14 02:12:18;;;;;;;3.28;2.97;;;;;;;3.45;100.00;97897.78;4178223;28;20618;-52
2023/04/14 02:14:21;;;;;;;5.18;3.50;;;;;;;3.47;100.00;97901.06;4178803;28;20208;-51
2023/04/14 02:16:23;;;;;;;3.72;2.90;;;;;;;3.60;100.00;97895.56;4170202;28;20293;-53
2023/04/14 02:18:26;;;;;;;7.53;2.47;;;;;;;3.66;100.00;97893.88;4169447;28;20231;-52
2023/04/14 02:20:28;;;;;;;3.65;2.20;;;;;;;3.59;100.00;97888.50;4170810;28;20216;-53
2023/04/14 02:22:30;;;;;;;9.15;2.55;;;;;;;3.68;100.00;97891.75;4158706;28;20235;-51
2023/04/14 02:24:32;;;;;;;3.97;2.35;;;;;;;3.58;100.00;97881.44;4172102;28;20220;-51
2023/04/14 02:26:35;;;;;;;6.35;2.83;;;;;;;3.54;100.00;97885.63;4172254;28;20239;-52
2023/04/14 02:28:42;;;;;;;6.30;2.60;;;;;;;3.52;100.00;97892.28;4188688;28;20215;-51
2023/04/14 02:30:50;;;;;;;4.35;2.58;;;;;;;3.43;100.00;97897.19;4172046;28;20210;-51
2023/04/14 02:33:17;;;;;;;3.92;2.17;;;;;;;3.45;100.00;97897.78;4184693;28;20199;-51
2023/04/14 02:35:25;;;;;;;6.78;2.35;;;;;;;3.42;100.00;97903.63;4192305;28;21142;-51
2023/04/14 02:37:32;;;;;;;3.38;2.38;;;;;;;3.42;100.00;97900.09;4168890;28;20232;-52
2023/04/14 02:39:40;;;;;;;6.32;2.85;;;;;;;3.50;100.00;97900.66;4177443;28;20882;-52
2023/04/14 02:41:43;;;;;;;6.20;2.30;;;;;;;3.54;100.00;97906.44;4153303;28;20235;-52
2023/04/14 02:43:54;;;;;;;1.92;1.73;;;;;;;3.42;100.00;97903.63;4170618;28;20239;-51
2023/04/14 02:45:57;;;;;;;4.82;2.60;;;;;;;3.45;100.00;97918.56;4171215;28;20211;-51
2023/04/14 02:48:02;;;;;;;5.47;2.40;;;;;;;3.33;100.00;97918.44;4187563;28;20227;-51
2023/04/14 02:50:06;;;;;;;9.20;2.28;;;;;;;3.44;100.00;97915.03;4183609;28;20666;-51
2023/04/14 02:52:10;;;;;;;6.22;2.60;;;;;;;3.31;100.00;97912.44;4168587;28;20205;-52
2023/04/14 02:54:11;;;;;;;8.32;2.10;;;;;;;3.31;100.00;97922.41;4177744;28;20243;-52
2023/04/14 02:56:14;;;;;;;6.22;2.63;;;;;;;3.29;100.00;97924.53;4169115;28;20298;-52
2023/04/14 02:58:16;;;;;;;6.10;2.33;;;;;;;3.28;100.00;97923.69;4160931;28;20260;-51
2023/04/14 03:00:18;;;;;;;3.22;2.13;;;;;;;3.30;100.00;97927.00;4177247;28;20287;-52
2023/04/14 03:02:20;;;;;;;3.17;1.90;;;;;;;3.33;100.00;97920.34;4177308;28;20287;-52
2023/04/14 03:04:23;;;;;;;5.43;2.40;;;;;;;3.23;100.00;97920.81;4173149;28;20326;-54
2023/04/14 03:06:26;;;;;;;7.80;2.80;;;;;;;3.26;100.00;97923.06;4170960;28;20728;-52
2023/04/14 03:08:28;;;;;;;4.13;2.20;;;;;;;3.18;100.00;97930.63;4200336;28;20235;-49
2023/04/14 03:10:29;;;;;;;4.47;2.45;;;;;;;3.19;100.00;97927.69;4172401;28;21061;-49
2023/04/14 03:12:32;;;;;;;3.33;2.55;;;;;;;3.13;100.00;97925.88;4170430;28;20238;-49
2023/04/14 03:14:35;;;;;;;5.75;2.10;;;;;;;3.13;100.00;97923.16;4186834;28;20826;-50
2023/04/14 03:16:38;;;;;;;3.58;2.83;;;;;;;3.07;100.00;97924.03;4170781;28;20208;-51
2023/04/14 03:18:41;;;;;;;3.42;2.28;;;;;;;3.07;100.00;97921.31;4170466;28;20199;-50
2023/04/14 03:20:44;;;;;;;5.70;2.72;;;;;;;3.08;100.00;97916.75;4159462;28;20220;-51
2023/04/14 03:22:49;;;;;;;2.42;2.08;;;;;;;3.08;100.00;97925.69;4171066;28;20205;-51
2023/04/14 03:24:52;;;;;;;5.70;3.00;;;;;;;3.18;100.00;97923.34;4168152;28;20256;-50
2023/04/14 03:26:57;;;;;;;3.33;1.95;;;;;;;3.09;100.00;97919.25;4170344;28;20201;-51
2023/04/14 03:29:01;;;;;;;4.35;2.58;;;;;;;2.98;100.00;97916.41;4177139;28;20212;-51
2023/04/14 03:31:04;;;;;;;7.60;3.22;;;;;;;3.10;100.00;97915.50;4172154;28;20669;-50
2023/04/14 03:33:08;;;;;;;4.82;3.20;;;;;;;3.03;100.00;97919.28;4185221;28;20290;-52
2023/04/14 03:35:13;;;;;;;6.35;3.63;;;;;;;2.92;100.00;97923.50;4177545;28;20208;-52
2023/04/14 03:37:17;;;;;;;7.07;3.22;;;;;;;2.91;100.00;97921.84;4166722;28;20586;-51
2023/04/14 03:39:21;;;;;;;6.82;3.65;;;;;;;2.87;100.00;97919.81;4168563;28;20290;-51
2023/04/14 03:41:25;;;;;;;7.95;3.55;;;;;;;2.99;100.00;97924.28;4169168;28;20310;-52
2023/04/14 03:43:27;;;;;;;5.97;3.42;;;;;;;2.98;100.00;97928.03;4176194;28;20223;-53
2023/04/14 03:45:31;;;;;;;5.45;2.85;;;;;;;2.82;100.00;97933.94;4176438;28;20271;-53
2023/04/14 03:47:33;;;;;;;3.15;2.38;;;;;;;2.75;100.00;97938.53;4152445;28;20232;-52
2023/04/14 03:49:38;;;;;;;6.30;2.45;;;;;;;2.71;100.00;97937.34;4160374;28;20216;-51
2023/04/14 03:51:40;;;;;;;5.07;3.13;;;;;;;2.70;100.00;97942.94;4151633;28;20304;-51
2023/04/14 03:53:44;;;;;;;4.32;2.28;;;;;;;2.79;100.00;97937.06;4150141;28;20333;-51
2023/04/14 03:55:50;;;;;;;6.88;2.53;;;;;;;2.80;100.00;97941.44;4169079;28;20204;-52
2023/04/14 03:57:56;;;;;;;8.98;2.80;;;;;;;2.84;100.00;97933.72;4169291;28;20270;-51
2023/04/14 04:00:00;;;;;;;5.28;3.38;;;;;;;2.82;100.00;97928.53;4169434;28;20250;-50
2023/04/14 04:02:02;;;;;;;13.50;2.75;;;;;;;2.80;100.00;97935.22;4167418;28;20228;-52
2023/04/14 04:04:05;;;;;;;3.90;3.13;;;;;;;2.77;100.00;97930.22;4191015;28;20629;-53
2023/04/14 04:06:07;;;;;;;4.53;2.53;;;;;;;2.80;100.00;97930.63;4175434;28;20709;-52
2023/04/14 04:08:09;;;;;;;7.47;3.50;;;;;;;2.85;100.00;97936.22;4172800;28;20223;-51
2023/04/14 04:10:12;;;;;;;6.75;3.13;;;;;;;2.84;100.00;97939.13;4170890;28;20239;-53
2023/04/14 04:12:15;;;;;;;4.80;2.85;;;;;;;2.71;100.00;97940.03;4201455;28;20203;-52
2023/04/14 04:14:20;;;;;;;4.75;2.38;;;;;;;2.67;100.00;97938.78;4183276;28;20243;-51
2023/04/14 04:16:23;;;;;;;3.78;2.55;;;;;;;2.63;100.00;97934.88;4166546;28;20205;-51
2023/04/14 04:18:26;;;;;;;2.75;2.47;;;;;;;2.66;100.00;97936.31;4167869;28;20226;-51
2023/04/14 04:20:28;;;;;;;3.75;2.83;;;;;;;2.64;100.00;97931.13;4168147;28;20211;-51
2023/04/14 04:22:32;;;;;;;5.03;3.30;;;;;;;2.61;100.00;97930.72;4170017;28;20236;-52
2023/04/14 04:24:37;;;;;;;4.30;3.10;;;;;;;2.52;100.00;97937.41;4175385;28;20270;-52
2023/04/14 04:26:39;;;;;;;3.13;2.28;;;;;;;2.42;100.00;97937.84;4198629;28;20242;-52
2023/04/14 04:28:42;;;;;;;4.35;2.70;;;;;;;2.40;100.00;97945.34;4158125;28;20246;-51
2023/04/14 04:30:44;;;;;;;8.40;4.05;;;;;;;2.45;100.00;97947.41;4189122;28;20239;-51
2023/04/14 04:32:46;;;;;;;4.43;3.17;;;;;;;2.45;100.00;97947.41;4159503;28;20232;-51
2023/04/14 04:34:48;;;;;;;3.75;2.70;;;;;;;2.69;100.00;97936.72;4176587;28;20203;-51
2023/04/14 04:36:51;;;;;;;5.82;2.80;;;;;;;2.60;100.00;97942.59;4170774;28;20236;-51
2023/04/14 04:38:53;;;;;;;3.13;2.42;;;;;;;2.43;100.00;97947.63;4175586;28;20212;-51
2023/04/14 04:40:54;;;;;;;3.17;2.17;;;;;;;2.35;100.00;97949.72;4166934;28;20240;-51
2023/04/14 04:42:56;;;;;;;5.32;3.13;;;;;;;2.46;100.00;97954.44;4168242;28;20208;-51
2023/04/14 04:44:58;;;;;;;4.45;3.63;;;;;;;2.34;100.00;97951.59;4153778;28;20260;-51
2023/04/14 04:47:00;;;;;;;3.85;3.10;;;;;;;2.31;100.00;97948.47;4169087;28;20646;-51
2023/04/14 04:49:02;;;;;;;11.68;3.20;;;;;;;2.29;100.00;97948.72;4174200;28;20212;-51
2023/04/14 04:51:04;;;;;;;6.43;2.42;;;;;;;2.44;100.00;97951.97;4175256;28;20630;-52
2023/04/14 04:53:06;;;;;;;12.55;3.88;;;;;;;2.47;100.00;97950.72;4186983;28;20203;-51
2023/04/14 04:55:07;;;;;;;5.70;2.65;;;;;;;2.41;100.00;97952.38;4173631;28;20235;-52
2023/04/14 04:57:09;;;;;;;4.13;2.45;;;;;;;2.30;100.00;97961.16;4166033;28;20236;-53
2023/04/14 04:59:12;;;;;;;5.80;2.30;;;;;;;2.44;100.00;97964.63;4175877;28;20290;-51
2023/04/14 05:01:15;;;;;;;3.58;2.58;;;;;;;2.35;100.00;97963.22;4174211;28;20208;-52
2023/04/14 05:03:17;;;;;;;4.68;2.28;;;;;;;2.34;100.00;97967.78;4158873;28;20209;-52
2023/04/14 05:05:24;;;;;;;3.85;2.60;;;;;;;2.36;100.00;97959.47;4172769;28;20338;-53
2023/04/14 05:07:26;;;;;;;4.70;2.75;;;;;;;2.35;100.00;97964.03;4173915;28;20305;-51
2023/04/14 05:09:28;;;;;;;3.95;2.33;;;;;;;2.30;100.00;97966.56;4156716;28;20205;-52
2023/04/14 05:11:30;;;;;;;3.38;2.53;;;;;;;2.23;100.00;97971.16;4179235;28;20669;-52
2023/04/14 05:13:32;;;;;;;2.53;2.10;;;;;;;2.24;100.00;97977.34;4177120;28;20200;-53
2023/04/14 05:15:34;;;;;;;6.03;2.65;;;;;;;2.27;100.00;97972.38;4180679;28;20239;-53
2023/04/14 05:17:36;;;;;;;4.75;2.75;;;;;;;2.27;100.00;97972.38;4188936;28;20794;-52
2023/04/14 05:19:37;;;;;;;4.30;2.85;;;;;;;2.24;100.00;97966.56;4181393;28;20214;-53
2023/04/14 05:21:39;;;;;;;5.65;2.80;;;;;;;2.24;100.00;97975.50;4176771;28;20254;-51
2023/04/14 05:23:42;;;;;;;4.68;2.78;;;;;;;2.30;100.00;97980.06;4174216;28;20246;-52
2023/04/14 05:25:44;;;;;;;7.88;3.17;;;;;;;2.25;100.00;97985.25;4197341;28;20238;-52
2023/04/14 05:27:48;;;;;;;3.78;3.17;;;;;;;2.42;100.00;97981.03;4179733;28;20226;-53
2023/04/14 05:29:51;;;;;;;13.45;4.28;;;;;;;2.40;100.00;97977.72;4194960;28;20246;-52
2023/04/14 05:31:52;;;;;;;8.75;5.90;;;;;;;2.43;100.00;97977.31;4171819;28;20232;-53
2023/04/14 05:33:54;;;;;;;7.22;3.28;;;;;;;2.48;100.00;97974.78;4205286;28;20242;-52
2023/04/14 05:35:56;;;;;;;7.35;3.80;;;;;;;2.62;100.00;97970.19;4187996;28;20231;-53
2023/04/14 05:37:57;;;;;;;14.25;3.40;;;;;;;2.74;100.00;97973.88;4173332;28;20256;-53
2023/04/14 05:40:00;;;;;;;9.63;2.90;;;;;;;2.78;100.00;97967.84;4180581;28;20208;-52
2023/04/14 05:42:02;;;;;;;16.13;4.13;;;;;;;2.71;100.00;97969.75;4174951;28;20209;-52
2023/04/14 05:44:03;;;;;;;7.38;3.38;;;;;;;2.72;100.00;97966.00;4171768;28;20230;-52
2023/04/14 05:46:05;;;;;;;5.30;3.17;;;;;;;2.72;100.00;97966.00;4175794;28;20251;-51
2023/04/14 05:48:07;;;;;;;4.93;2.85;;;;;;;2.79;100.00;97976.75;4174462;28;20311;-52
2023/04/14 05:50:10;;;;;;;5.75;3.13;;;;;;;2.78;100.00;97969.69;4176458;28;20205;-52
2023/04/14 05:52:11;;;;;;;8.25;3.72;;;;;;;2.92;100.00;97977.53;4156580;28;20209;-52
2023/04/14 05:54:13;;;;;;;8.48;3.22;;;;;;;3.19;100.00;97979.06;4206359;28;20214;-51
2023/04/14 05:56:15;;;;;;;8.52;3.88;;;;;;;3.53;100.00;97970.50;4172919;28;20231;-52
2023/04/14 05:58:17;;;;;;;13.32;3.78;;;;;;;4.04;100.00;97975.72;4191395;28;20317;-51
2023/04/14 06:00:19;;;;;;;7.25;4.03;;;;;;;4.39;100.00;97977.66;4182536;28;20239;-52
2023/04/14 06:02:20;;;;;;;10.63;4.25;;;;;;;4.52;100.00;97971.25;4190490;28;20235;-52
2023/04/14 06:04:22;;;;;;;6.50;3.60;;;;;;;4.43;100.00;97975.31;4190307;28;20600;-53
2023/04/14 06:06:25;;;;;;;7.93;3.30;;;;;;;4.80;100.00;97985.13;4202652;28;20272;-52
2023/04/14 06:08:28;;;;;;;6.07;3.28;;;;;;;4.75;100.00;97983.09;4173512;28;20322;-52
2023/04/14 06:10:31;;;;;;;11.35;3.33;;;;;;;4.93;100.00;97980.34;4195409;28;20312;-51
2023/04/14 06:12:32;;;;;;;11.30;3.67;;;;;;;5.24;100.00;97977.44;4177901;28;20650;-53
2023/04/14 06:14:34;;;;;;;14.30;3.78;;;;;;;5.42;100.00;97975.50;4178259;28;20352;-53
2023/04/14 06:16:36;;;;;;;5.38;3.78;;;;;;;5.07;100.00;97975.59;4156734;28;20694;-52
2023/04/14 06:18:38;;;;;;;3.42;2.65;;;;;;;5.10;100.00;97978.69;4189269;28;20227;-52
2023/04/14 06:20:39;;;;;;;5.47;3.40;;;;;;;5.74;100.00;97973.34;4190810;28;20203;-53
2023/04/14 06:22:42;;;;;;;16.73;3.95;;;;;;;6.02;100.00;97976.28;4171830;28;20243;-51
2023/04/14 06:24:46;;;;;;;9.65;4.10;;;;;;;6.55;100.00;97971.56;4160307;28;20898;-51
2023/04/14 06:26:48;;;;;;;9.50;5.20;;;;;;;6.66;98.67;97974.25;4168926;28;20232;-52
2023/04/14 06:28:50;;;;;;;6.03;3.47;;;;;;;7.26;98.36;97969.25;4190856;28;20258;-53
2023/04/14 06:30:52;;;;;;;8.18;3.08;;;;;;;7.06;98.22;97963.41;4159952;28;20693;-54
2023/04/14 06:32:55;;;;;;;9.57;3.72;;;;;;;7.21;98.30;97971.88;4172570;28;20216;-53
2023/04/14 06:34:56;;;;;;;7.15;3.80;;;;;;;7.58;97.37;97957.63;4189319;28;20566;-52
2023/04/14 06:37:00;;;;;;;5.32;3.58;;;;;;;7.99;94.63;97960.00;4172478;28;20325;-53
2023/04/14 06:39:02;;;;;;;5.45;3.65;;;;;;;8.45;90.74;97961.56;4169093;28;20239;-54
2023/04/14 06:41:04;;;;;;;5.30;3.00;;;;;;;8.54;90.41;97965.53;4168053;28;20307;-52
2023/04/14 06:43:09;;;;;;;6.30;3.10;;;;;;;8.86;87.61;97955.59;4168248;28;20648;-51
2023/04/14 06:45:11;;;;;;;4.78;3.67;;;;;;;9.13;85.92;97953.75;4169177;28;20627;-51
2023/04/14 06:47:18;;;;;;;3.60;3.17;;;;;;;9.64;84.10;97955.97;4171225;28;20311;-53
2023/04/14 06:49:20;;;;;;;2.67;2.45;;;;;;;9.69;81.97;97953.31;4203285;28;20251;-52
2023/04/14 06:51:21;;;;;;;3.05;2.70;;;;;;;9.47;82.18;97957.97;4187681;28;20294;-52
2023/04/14 06:53:24;;;;;;;5.30;3.45;;;;;;;10.31;80.57;97943.47;4190061;28;20307;-51
2023/04/14 06:55:26;;;;;;;8.45;2.83;;;;;;;9.76;83.99;97949.25;4172457;28;20213;-51
2023/04/14 06:57:28;;;;;;;6.88;2.65;;;;;;;9.27;83.39;97947.66;4159799;28;20572;-53
2023/04/14 06:59:29;;;;;;;7.85;3.30;;;;;;;8.28;87.88;97949.84;4174376;28;20219;-53
2023/04/14 07:01:31;;;;;;;8.50;3.88;;;;;;;9.24;88.30;97950.06;4181724;28;20697;-54
2023/04/14 07:03:33;;;;;;;11.52;3.30;;;;;;;9.89;83.07;97945.28;4180444;28;20728;-52
2023/04/14 07:05:35;;;;;;;10.40;3.90;;;;;;;9.67;85.58;97936.34;4172075;28;20620;-53
2023/04/14 07:07:39;;;;;;;5.10;3.95;;;;;;;8.50;86.54;97946.09;4171408;28;21218;-51
2023/04/14 07:09:41;;;;;;;8.55;4.30;;;;;;;9.34;86.54;97936.56;4170814;28;20218;-50
2023/04/14 07:11:45;;;;;;;4.28;2.75;;;;;;;10.82;81.35;97940.00;4173605;28;20654;-50
2023/04/14 07:13:46;;;;;;;3.63;2.55;;;;;;;11.05;78.95;97934.91;4184584;28;20276;-50
2023/04/14 07:15:48;;;;;;;7.70;3.35;;;;;;;11.90;76.11;97944.22;4171436;28;20203;-50
2023/04/14 07:17:50;;;;;;;5.22;3.63;;;;;;;11.64;76.39;97945.25;4160974;28;20282;-50
2023/04/14 07:19:52;;;;;;;4.38;3.03;;;;;;;11.77;74.55;97939.25;4176112;28;20257;-49
2023/04/14 07:21:54;;;;;;;6.85;3.92;;;;;;;12.17;73.50;97939.28;4183411;28;20667;-50
2023/04/14 07:23:55;;;;;;;13.32;2.78;;;;;;;12.51;71.71;97942.31;4167481;28;20314;-50
2023/04/14 07:25:58;;;;;;;6.35;3.65;;;;;;;12.38;71.84;97935.44;4200918;28;20266;-50
2023/04/14 07:28:00;;;;;;;5.78;2.97;;;;;;;11.44;75.60;97944.38;4176395;28;20224;-48
2023/04/14 07:30:04;;;;;;;6.38;3.60;;;;;;;12.06;73.15;97936.81;4168144;28;20685;-49
2023/04/14 07:32:07;;;;;;;5.07;3.03;;;;;;;11.80;73.29;97941.47;4170803;28;20201;-49
2023/04/14 07:34:09;;;;;;;5.00;3.30;;;;;;;11.58;76.77;97934.56;4173117;28;20220;-48
2023/04/14 07:36:11;;;;;;;6.85;2.63;;;;;;;11.56;72.41;97937.53;4155659;28;20228;-49
2023/04/14 07:38:12;;;;;;;6.47;3.25;;;;;;;11.07;74.03;97936.28;4170659;28;20239;-47
2023/04/14 07:40:14;;;;;;;7.43;2.90;;;;;;;10.55;76.41;97929.16;4170250;28;20705;-46
2023/04/14 07:42:16;;;;;;;6.82;3.58;;;;;;;10.06;78.06;97935.06;4165206;28;20291;-46
2023/04/14 07:44:18;;;;;;;6.95;3.67;;;;;;;9.76;79.39;97930.13;4201186;28;20206;-48
2023/04/14 07:46:20;;;;;;;8.15;3.45;;;;;;;9.52;81.15;97938.91;4188563;28;20258;-47
2023/04/14 07:48:22;;;;;;;7.83;3.80;;;;;;;9.28;82.53;97926.66;4174059;28;20456;-47
2023/04/14 07:50:24;;;;;;;4.30;2.92;;;;;;;8.94;85.27;97923.22;4189744;28;20925;-48
2023/04/14 07:52:26;;;;;;;4.70;3.20;;;;;;;8.89;87.56;97925.09;4169046;28;20319;-46
2023/04/14 07:54:29;;;;;;;4.45;2.90;;;;;;;9.18;86.38;97921.06;4174733;28;20210;-48
2023/04/14 07:56:30;;;;;;;5.38;3.00;;;;;;;9.14;86.27;97925.41;4200299;28;20660;-47
2023/04/14 07:58:33;;;;;;;5.50;3.65;;;;;;;9.19;85.64;97922.72;4168627;28;20267;-48
2023/04/14 08:00:36;;;;;;;5.63;3.25;;;;;;;9.09;85.86;97926.13;4183757;28;22183;-48
2023/04/14 08:02:37;;;;;;;4.60;2.72;;;;;;;9.14;85.78;97925.41;4170586;28;20207;-49
2023/04/14 08:04:40;;;;;;;5.15;2.72;;;;;;;9.10;85.86;97926.97;4167249;28;20242;-47
2023/04/14 08:06:41;;;;;;;6.35;3.47;;;;;;;9.35;83.91;97927.28;4168413;28;20228;-47
2023/04/14 08:08:43;;;;;;;5.20;3.08;;;;;;;9.29;83.90;97912.72;4171087;28;20203;-48
2023/04/14 08:10:45;;;;;;;5.07;3.38;;;;;;;9.26;83.85;97918.72;4159789;28;20208;-47
2023/04/14 08:12:47;;;;;;;4.97;2.80;;;;;;;9.32;84.79;97923.16;4167884;28;20223;-46
2023/04/14 08:14:49;;;;;;;3.33;2.58;;;;;;;9.43;83.76;97924.06;4185195;28;20571;-46
2023/04/14 08:16:51;;;;;;;5.90;3.55;;;;;;;9.70;82.60;97913.97;4171560;28;20287;-44
2023/04/14 08:18:54;;;;;;;11.50;4.60;;;;;;;10.01;81.01;97913.97;4176876;28;21149;-46
2023/04/14 08:20:58;;;;;;;3.53;2.00;;;;;;;10.37;79.42;97915.09;4160321;28;20681;-45
2023/04/14 08:23:00;;;;;;;5.95;2.78;;;;;;;10.32;79.72;97907.69;4173009;28;20303;-45
2023/04/14 08:25:02;;;;;;;4.15;2.50;;;;;;;10.13;79.79;97908.34;4166805;28;20262;-46
2023/04/14 08:27:03;;;;;;;2.72;1.40;;;;;;;10.20;76.93;97915.25;4167210;28;20228;-47
2023/04/14 08:29:05;;;;;;;4.97;1.92;;;;;;;10.26;77.30;97907.88;4168648;28;20817;-46
2023/04/14 08:31:10;;;;;;;5.53;1.90;;;;;;;10.31;75.18;97899.72;4168371;28;20246;-45
2023/04/14 08:33:12;;;;;;;3.38;1.75;;;;;;;10.37;75.18;97906.88;4167829;28;20547;-47
2023/04/14 08:35:15;;;;;;;7.47;1.83;;;;;;;11.72;74.69;97914.56;4166328;28;20693;-47
2023/04/14 08:37:37;;;;;;;5.63;1.55;;;;;;;12.20;69.71;97905.84;4167358;28;20236;-47
2023/04/14 08:39:38;;;;;;;3.53;1.10;;;;;;;11.32;69.75;97906.22;4171149;28;20212;-48
2023/04/14 08:41:41;;;;;;;3.92;1.45;;;;;;;11.17;71.00;97906.19;4172026;28;20211;-48
2023/04/14 08:43:43;;;;;;;4.55;1.33;;;;;;;10.99;71.74;97903.97;4165689;28;20209;-47
2023/04/14 08:45:45;;;;;;;5.32;1.88;;;;;;;11.03;72.85;97902.31;4168921;28;20216;-47
2023/04/14 08:47:50;;;;;;;4.22;1.60;;;;;;;10.95;70.75;97902.84;4168620;28;20225;-48
2023/04/14 08:49:56;;;;;;;4.13;1.85;;;;;;;10.96;70.09;97900.91;4168610;28;20723;-47
2023/04/14 08:52:02;;;;;;;3.70;1.55;;;;;;;11.13;69.90;97899.63;4167088;28;20343;-46
2023/04/14 08:54:09;;;;;;;6.95;1.73;;;;;;;11.34;70.55;97904.06;4166052;28;20253;-48
2023/04/14 08:56:13;;;;;;;3.45;1.60;;;;;;;11.62;68.50;97892.66;4167330;28;20736;-47
2023/04/14 08:58:16;;;;;;;3.63;2.03;;;;;;;11.38;67.37;97896.13;4169701;28;20232;-46
2023/04/14 09:00:18;;;;;;;8.25;2.33;;;;;;;11.74;68.09;97895.97;4154404;28;20216;-47
2023/04/14 09:02:20;;;;;;;1.77;1.33;;;;;;;11.94;67.18;97901.47;4198717;28;20214;-49
2023/04/14 09:04:22;;;;;;;2.83;1.50;;;;;;;11.90;66.26;97897.59;4155877;28;20208;-46
2023/04/14 09:06:25;;;;;;;4.70;2.03;;;;;;;12.13;66.20;97893.50;4167003;28;20582;-46
2023/04/14 09:08:27;;;;;;;3.67;1.52;;;;;;;11.84;65.79;97901.44;4181878;28;20227;-49
2023/04/14 09:10:29;;;;;;;2.85;1.35;;;;;;;12.04;65.71;97901.44;4197999;28;20210;-47
2023/04/14 09:12:31;;;;;;;4.60;2.05;;;;;;;12.05;64.96;97897.59;4168325;28;20220;-46
2023/04/14 09:14:33;;;;;;;4.00;1.38;;;;;;;12.83;66.68;97899.69;4183697;28;20207;-48
2023/04/14 09:16:35;;;;;;;1.77;1.52;;;;;;;12.92;63.01;97892.53;4172304;28;20575;-49
2023/04/14 09:18:37;;;;;;;4.05;1.52;;;;;;;13.79;63.44;97887.13;4166202;28;20283;-48
2023/04/14 09:20:40;;;;;;;4.75;1.70;;;;;;;13.69;62.32;97894.63;4151829;28;20296;-49
2023/04/14 09:22:45;;;;;;;5.30;2.20;;;;;;;13.51;61.36;97890.59;4166923;28;20204;-48
2023/04/14 09:24:54;;;;;;;2.83;1.27;;;;;;;13.28;60.69;97884.97;4167824;28;20295;-48
2023/04/14 09:27:06;;;;;;;5.25;1.95;;;;;;;13.09;60.80;97887.53;4170038;28;20976;-48
2023/04/14 09:29:25;;;;;;;4.82;1.63;;;;;;;12.77;59.76;97889.00;4149455;28;20222;-47
2023/04/14 09:31:32;;;;;;;1.88;1.33;;;;;;;12.01;61.12;97877.31;4156536;28;20259;-48
2023/04/14 09:33:38;;;;;;;7.45;2.13;;;;;;;12.36;62.43;97880.03;4166109;28;20204;-48
2023/04/14 09:35:45;;;;;;;3.13;1.90;;;;;;;12.44;61.03;97881.41;4191076;28;20223;-47
2023/04/14 09:37:47;;;;;;;8.25;1.38;;;;;;;12.71;59.59;97879.94;4165371;28;20290;-48
2023/04/14 09:39:50;;;;;;;4.05;1.45;;;;;;;12.49;58.73;97881.38;4167581;28;20216;-47
2023/04/14 09:41:52;;;;;;;1.90;1.13;;;;;;;12.25;57.63;97872.91;4173708;28;20204;-47